Estación Meteorológica Peña el Pijo (Robertgarden) [ 12/10/18 11:15:33 CET ]

Fecha Hora Presion(HPa) Temp (°C) Humedad % Rocio (°C) Viento ( m/s) Direccion Lluvia 1Hora(mm) Lluvia 24H(mm) LLuvia Total(mm)
2018-Oct-04 01:01:39 1014.000 10.5 64 3.9         356.38
2018-Oct-04 02:01:46 1013.800 9.9 65 3.6         356.38
2018-Oct-04 03:05:10 1013.600 8.7 67 2.9         356.38
2018-Oct-04 04:01:42 1013.200 7.4 71 2.5         356.38
2018-Oct-04 05:01:35 1012.700 6.6 75 2.5         356.38
2018-Oct-04 06:01:47 1012.500 6.9 77 3.1         356.38
2018-Oct-04 07:01:51 1012.400 6.5 77 2.7         356.38
2018-Oct-04 08:01:53 1012.500 6.5 78 2.9         356.38
2018-Oct-04 09:01:46 1012.800 7.8 80 4.6         356.38
2018-Oct-04 10:01:48 1013.200 15.1 67 9.0         356.38
2018-Oct-04 11:01:51 1013.200 23.0 45 10.3         356.38
2018-Oct-04 12:01:44 1012.800 27.9 31 9.1         356.38
2018-Oct-04 13:01:39 1012.300 27.8 29 8.1         356.38
2018-Oct-04 14:01:47 1011.900 26.9 27 6.2         356.38
2018-Oct-04 15:01:46 1011.500 28.3 26 6.7         356.38
2018-Oct-04 16:01:56 1011.000 28.4 27 7.4         356.38
2018-Oct-04 17:02:05 1011.000 28.2 30 9.0         356.38
2018-Oct-04 18:01:47 1010.800 24.5 36 8.4         356.38
2018-Oct-04 19:01:44 1011.200 21.8 42 8.3         356.38
2018-Oct-04 20:01:57 1011.400 19.0 49 8.1         356.38
2018-Oct-04 21:01:50 1011.800 16.3 57 7.8         356.38
2018-Oct-04 22:01:44 1012.400 13.6 65 7.1         356.38
2018-Oct-04 23:01:52 1012.800 11.8 71 6.7         356.38

Temperatura Máxima:28°    Temperatura Mínima:
Presión Máxima:1014.000 Hpa    Presión Mínima:1010.800 Hpa


Volver